sensor_id;sensor_type;location;lat;lon;timestamp;temperature;humidity
69162;DHT22;56269;51.738;21.652;2023-04-06T00:00:23;-1.38;82.80
69162;DHT22;56269;51.738;21.652;2023-04-06T00:03:09;-1.28;81.57
69162;DHT22;56269;51.738;21.652;2023-04-06T00:05:36;-1.28;81.19
69162;DHT22;56269;51.738;21.652;2023-04-06T00:08:05;-1.25;82.25
69162;DHT22;56269;51.738;21.652;2023-04-06T00:10:32;-1.12;81.03
69162;DHT22;56269;51.738;21.652;2023-04-06T00:12:58;-1.11;80.09
69162;DHT22;56269;51.738;21.652;2023-04-06T00:15:26;-1.14;81.84
69162;DHT22;56269;51.738;21.652;2023-04-06T00:17:52;-1.14;80.87
69162;DHT22;56269;51.738;21.652;2023-04-06T00:20:19;-1.15;81.17
69162;DHT22;56269;51.738;21.652;2023-04-06T00:22:45;-1.16;80.75
69162;DHT22;56269;51.738;21.652;2023-04-06T00:25:12;-1.15;81.43
69162;DHT22;56269;51.738;21.652;2023-04-06T00:27:38;-1.16;81.19
69162;DHT22;56269;51.738;21.652;2023-04-06T00:30:05;-1.21;81.69
69162;DHT22;56269;51.738;21.652;2023-04-06T00:32:32;-1.18;81.37
69162;DHT22;56269;51.738;21.652;2023-04-06T00:34:58;-1.19;81.01
69162;DHT22;56269;51.738;21.652;2023-04-06T00:37:25;-1.24;82.15
69162;DHT22;56269;51.738;21.652;2023-04-06T00:39:51;-1.19;80.40
69162;DHT22;56269;51.738;21.652;2023-04-06T00:42:18;-1.21;81.12
69162;DHT22;56269;51.738;21.652;2023-04-06T00:44:55;-1.27;81.17
69162;DHT22;56269;51.738;21.652;2023-04-06T00:47:22;-1.30;81.62
69162;DHT22;56269;51.738;21.652;2023-04-06T00:49:49;-1.21;81.21
69162;DHT22;56269;51.738;21.652;2023-04-06T00:52:15;-1.16;80.95
69162;DHT22;56269;51.738;21.652;2023-04-06T00:54:42;-1.19;81.23
69162;DHT22;56269;51.738;21.652;2023-04-06T00:57:09;-1.18;81.28
69162;DHT22;56269;51.738;21.652;2023-04-06T00:59:36;-1.18;81.52
69162;DHT22;56269;51.738;21.652;2023-04-06T01:02:02;-1.19;80.68
69162;DHT22;56269;51.738;21.652;2023-04-06T01:04:28;-1.21;81.45
69162;DHT22;56269;51.738;21.652;2023-04-06T01:06:55;-1.19;80.54
69162;DHT22;56269;51.738;21.652;2023-04-06T01:09:21;-1.19;81.28
69162;DHT22;56269;51.738;21.652;2023-04-06T01:11:48;-1.16;81.04
69162;DHT22;56269;51.738;21.652;2023-04-06T01:14:14;-1.19;82.16
69162;DHT22;56269;51.738;21.652;2023-04-06T01:16:41;-1.25;81.78
69162;DHT22;56269;51.738;21.652;2023-04-06T01:19:12;-1.19;81.31
69162;DHT22;56269;51.738;21.652;2023-04-06T01:21:39;-1.21;80.99
69162;DHT22;56269;51.738;21.652;2023-04-06T01:24:06;-1.25;82.12
69162;DHT22;56269;51.738;21.652;2023-04-06T01:26:33;-1.24;81.29
69162;DHT22;56269;51.738;21.652;2023-04-06T01:29:00;-1.19;81.38
69162;DHT22;56269;51.738;21.652;2023-04-06T01:31:27;-1.16;81.56
69162;DHT22;56269;51.738;21.652;2023-04-06T01:33:54;-1.15;81.45
69162;DHT22;56269;51.738;21.652;2023-04-06T01:36:21;-1.15;81.08
69162;DHT22;56269;51.738;21.652;2023-04-06T01:38:48;-1.15;81.56
69162;DHT22;56269;51.738;21.652;2023-04-06T01:41:14;-1.12;82.10
69162;DHT22;56269;51.738;21.652;2023-04-06T01:43:40;-1.12;81.65
69162;DHT22;56269;51.738;21.652;2023-04-06T01:46:06;-1.05;80.91
69162;DHT22;56269;51.738;21.652;2023-04-06T01:48:33;-1.05;81.25
69162;DHT22;56269;51.738;21.652;2023-04-06T01:50:59;-1.08;81.97
69162;DHT22;56269;51.738;21.652;2023-04-06T01:53:26;-1.08;82.24
69162;DHT22;56269;51.738;21.652;2023-04-06T01:55:52;-1.04;81.78
69162;DHT22;56269;51.738;21.652;2023-04-06T01:58:19;-1.02;82.78
69162;DHT22;56269;51.738;21.652;2023-04-06T02:00:45;-1.08;82.69
69162;DHT22;56269;51.738;21.652;2023-04-06T02:03:11;-1.05;81.25
69162;DHT22;56269;51.738;21.652;2023-04-06T02:05:37;-0.95;81.24
69162;DHT22;56269;51.738;21.652;2023-04-06T02:08:05;-0.94;81.24
69162;DHT22;56269;51.738;21.652;2023-04-06T02:10:31;-0.91;81.02
69162;DHT22;56269;51.738;21.652;2023-04-06T02:12:58;-0.90;82.48
69162;DHT22;56269;51.738;21.652;2023-04-06T02:15:27;-0.90;81.29
69162;DHT22;56269;51.738;21.652;2023-04-06T02:17:54;-0.91;82.28
69162;DHT22;56269;51.738;21.652;2023-04-06T02:20:20;-0.88;81.24
69162;DHT22;56269;51.738;21.652;2023-04-06T02:22:47;-0.85;80.99
69162;DHT22;56269;51.738;21.652;2023-04-06T02:25:13;-0.83;81.49
69162;DHT22;56269;51.738;21.652;2023-04-06T02:27:40;-0.84;81.60
69162;DHT22;56269;51.738;21.652;2023-04-06T02:30:06;-0.83;80.88
69162;DHT22;56269;51.738;21.652;2023-04-06T02:32:33;-0.84;81.13
69162;DHT22;56269;51.738;21.652;2023-04-06T02:34:59;-0.77;81.82
69162;DHT22;56269;51.738;21.652;2023-04-06T02:37:26;-0.79;81.10
69162;DHT22;56269;51.738;21.652;2023-04-06T02:39:53;-0.74;81.05
69162;DHT22;56269;51.738;21.652;2023-04-06T02:42:20;-0.77;81.44
69162;DHT22;56269;51.738;21.652;2023-04-06T02:44:46;-0.76;81.52
69162;DHT22;56269;51.738;21.652;2023-04-06T02:47:13;-0.74;80.94
69162;DHT22;56269;51.738;21.652;2023-04-06T02:49:39;-0.74;81.82
69162;DHT22;56269;51.738;21.652;2023-04-06T02:52:06;-0.61;80.52
69162;DHT22;56269;51.738;21.652;2023-04-06T02:54:32;-0.67;80.85
69162;DHT22;56269;51.738;21.652;2023-04-06T02:56:58;-0.63;80.77
69162;DHT22;56269;51.738;21.652;2023-04-06T02:59:24;-0.60;81.63
69162;DHT22;56269;51.738;21.652;2023-04-06T03:01:51;-0.60;80.92
69162;DHT22;56269;51.738;21.652;2023-04-06T03:04:17;-0.60;81.18
69162;DHT22;56269;51.738;21.652;2023-04-06T03:06:44;-0.59;80.79
69162;DHT22;56269;51.738;21.652;2023-04-06T03:09:10;-0.54;80.75
69162;DHT22;56269;51.738;21.652;2023-04-06T03:11:37;-0.56;80.40
69162;DHT22;56269;51.738;21.652;2023-04-06T03:14:03;-0.52;80.94
69162;DHT22;56269;51.738;21.652;2023-04-06T03:16:30;-0.57;81.08
69162;DHT22;56269;51.738;21.652;2023-04-06T03:18:56;-0.53;81.34
69162;DHT22;56269;51.738;21.652;2023-04-06T03:21:23;-0.50;80.78
69162;DHT22;56269;51.738;21.652;2023-04-06T03:23:49;-0.53;80.83
69162;DHT22;56269;51.738;21.652;2023-04-06T03:26:17;-0.54;81.48
69162;DHT22;56269;51.738;21.652;2023-04-06T03:28:43;-0.53;80.29
69162;DHT22;56269;51.738;21.652;2023-04-06T03:31:10;-0.53;80.80
69162;DHT22;56269;51.738;21.652;2023-04-06T03:33:36;-0.50;80.88
69162;DHT22;56269;51.738;21.652;2023-04-06T03:36:03;-0.53;81.09
69162;DHT22;56269;51.738;21.652;2023-04-06T03:38:29;-0.53;81.30
69162;DHT22;56269;51.738;21.652;2023-04-06T03:40:56;-0.56;81.99
69162;DHT22;56269;51.738;21.652;2023-04-06T03:43:22;-0.54;81.67
69162;DHT22;56269;51.738;21.652;2023-04-06T03:45:49;-0.53;81.09
69162;DHT22;56269;51.738;21.652;2023-04-06T03:48:15;-0.52;80.29
69162;DHT22;56269;51.738;21.652;2023-04-06T03:50:45;-0.48;80.79
69162;DHT22;56269;51.738;21.652;2023-04-06T03:53:11;-0.49;80.75
69162;DHT22;56269;51.738;21.652;2023-04-06T03:55:38;-0.49;80.80
69162;DHT22;56269;51.738;21.652;2023-04-06T03:58:04;-0.49;80.49
69162;DHT22;56269;51.738;21.652;2023-04-06T04:00:31;-0.46;80.67
69162;DHT22;56269;51.738;21.652;2023-04-06T04:02:58;-0.37;80.31
69162;DHT22;56269;51.738;21.652;2023-04-06T04:05:26;-0.40;79.95
69162;DHT22;56269;51.738;21.652;2023-04-06T04:07:53;-0.40;81.01
69162;DHT22;56269;51.738;21.652;2023-04-06T04:10:19;-0.39;80.09
69162;DHT22;56269;51.738;21.652;2023-04-06T04:12:45;-0.39;80.24
69162;DHT22;56269;51.738;21.652;2023-04-06T04:15:27;-0.34;79.64
69162;DHT22;56269;51.738;21.652;2023-04-06T04:17:53;-0.30;80.14
69162;DHT22;56269;51.738;21.652;2023-04-06T04:20:20;-0.29;80.03
69162;DHT22;56269;51.738;21.652;2023-04-06T04:22:47;-0.20;79.46
69162;DHT22;56269;51.738;21.652;2023-04-06T04:25:13;-0.15;79.55
69162;DHT22;56269;51.738;21.652;2023-04-06T04:27:40;-0.08;79.64
69162;DHT22;56269;51.738;21.652;2023-04-06T04:30:07;-0.02;79.40
69162;DHT22;56269;51.738;21.652;2023-04-06T04:32:33;0.06;78.75
69162;DHT22;56269;51.738;21.652;2023-04-06T04:34:59;0.08;79.13
69162;DHT22;56269;51.738;21.652;2023-04-06T04:37:25;0.12;78.43
69162;DHT22;56269;51.738;21.652;2023-04-06T04:39:52;0.19;78.22
69162;DHT22;56269;51.738;21.652;2023-04-06T04:42:18;0.23;79.44
69162;DHT22;56269;51.738;21.652;2023-04-06T04:44:45;0.26;78.27
69162;DHT22;56269;51.738;21.652;2023-04-06T04:47:11;0.23;78.27
69162;DHT22;56269;51.738;21.652;2023-04-06T04:49:37;0.28;78.32
69162;DHT22;56269;51.738;21.652;2023-04-06T04:52:03;0.30;78.21
69162;DHT22;56269;51.738;21.652;2023-04-06T04:54:30;0.32;78.48
69162;DHT22;56269;51.738;21.652;2023-04-06T04:56:56;0.30;78.13
69162;DHT22;56269;51.738;21.652;2023-04-06T04:59:23;0.33;78.66
69162;DHT22;56269;51.738;21.652;2023-04-06T05:01:49;0.35;78.66
69162;DHT22;56269;51.738;21.652;2023-04-06T05:04:16;0.36;78.18
69162;DHT22;56269;51.738;21.652;2023-04-06T05:06:42;0.43;78.40
69162;DHT22;56269;51.738;21.652;2023-04-06T05:09:08;0.49;78.59
69162;DHT22;56269;51.738;21.652;2023-04-06T05:11:35;0.48;78.75
69162;DHT22;56269;51.738;21.652;2023-04-06T05:14:01;0.50;78.51
69162;DHT22;56269;51.738;21.652;2023-04-06T05:16:27;0.54;77.96
69162;DHT22;56269;51.738;21.652;2023-04-06T05:18:54;0.60;77.47
69162;DHT22;56269;51.738;21.652;2023-04-06T05:21:22;0.62;77.75
69162;DHT22;56269;51.738;21.652;2023-04-06T05:23:49;0.67;77.69
69162;DHT22;56269;51.738;21.652;2023-04-06T05:26:15;0.69;77.95
69162;DHT22;56269;51.738;21.652;2023-04-06T05:28:41;0.76;77.23
69162;DHT22;56269;51.738;21.652;2023-04-06T05:31:10;0.76;77.21
69162;DHT22;56269;51.738;21.652;2023-04-06T05:33:36;0.83;77.39
69162;DHT22;56269;51.738;21.652;2023-04-06T05:36:02;0.84;77.58
69162;DHT22;56269;51.738;21.652;2023-04-06T05:38:31;0.81;77.04
69162;DHT22;56269;51.738;21.652;2023-04-06T05:40:59;0.79;77.68
69162;DHT22;56269;51.738;21.652;2023-04-06T05:43:25;0.74;77.80
69162;DHT22;56269;51.738;21.652;2023-04-06T05:45:51;0.76;78.20
69162;DHT22;56269;51.738;21.652;2023-04-06T05:48:18;0.72;78.35
69162;DHT22;56269;51.738;21.652;2023-04-06T05:50:48;0.79;78.50
69162;DHT22;56269;51.738;21.652;2023-04-06T05:53:16;0.84;78.73
69162;DHT22;56269;51.738;21.652;2023-04-06T05:55:42;0.79;79.15
69162;DHT22;56269;51.738;21.652;2023-04-06T05:58:09;0.90;79.21
69162;DHT22;56269;51.738;21.652;2023-04-06T06:00:35;0.87;79.96
69162;DHT22;56269;51.738;21.652;2023-04-06T06:03:02;0.79;79.63
69162;DHT22;56269;51.738;21.652;2023-04-06T06:05:30;0.77;80.29
69162;DHT22;56269;51.738;21.652;2023-04-06T06:07:56;0.72;80.53
69162;DHT22;56269;51.738;21.652;2023-04-06T06:10:22;0.79;80.99
69162;DHT22;56269;51.738;21.652;2023-04-06T06:12:49;0.79;81.43
69162;DHT22;56269;51.738;21.652;2023-04-06T06:15:15;0.84;81.36
69162;DHT22;56269;51.738;21.652;2023-04-06T06:17:50;0.79;81.13
69162;DHT22;56269;51.738;21.652;2023-04-06T06:20:17;0.93;81.45
69162;DHT22;56269;51.738;21.652;2023-04-06T06:22:43;0.88;81.47
69162;DHT22;56269;51.738;21.652;2023-04-06T06:25:09;0.93;81.40
69162;DHT22;56269;51.738;21.652;2023-04-06T06:27:36;0.97;81.29
69162;DHT22;56269;51.738;21.652;2023-04-06T06:30:03;1.08;81.52
69162;DHT22;56269;51.738;21.652;2023-04-06T06:32:30;1.11;82.02
69162;DHT22;56269;51.738;21.652;2023-04-06T06:34:56;1.11;81.28
69162;DHT22;56269;51.738;21.652;2023-04-06T06:37:22;1.03;81.45
69162;DHT22;56269;51.738;21.652;2023-04-06T06:39:49;0.98;81.81
69162;DHT22;56269;51.738;21.652;2023-04-06T06:42:15;1.08;81.53
69162;DHT22;56269;51.738;21.652;2023-04-06T06:44:41;1.08;82.24
69162;DHT22;56269;51.738;21.652;2023-04-06T06:47:08;1.15;82.60
69162;DHT22;56269;51.738;21.652;2023-04-06T06:49:37;1.14;82.34
69162;DHT22;56269;51.738;21.652;2023-04-06T06:52:12;1.07;82.40
69162;DHT22;56269;51.738;21.652;2023-04-06T06:54:50;1.21;82.35
69162;DHT22;56269;51.738;21.652;2023-04-06T06:57:36;1.18;82.48
69162;DHT22;56269;51.738;21.652;2023-04-06T07:00:08;1.15;82.86
69162;DHT22;56269;51.738;21.652;2023-04-06T07:02:35;1.21;83.25
69162;DHT22;56269;51.738;21.652;2023-04-06T07:05:02;1.24;83.58
69162;DHT22;56269;51.738;21.652;2023-04-06T07:07:33;1.30;83.49
69162;DHT22;56269;51.738;21.652;2023-04-06T07:10:02;1.46;84.45
69162;DHT22;56269;51.738;21.652;2023-04-06T07:12:29;1.35;84.06
69162;DHT22;56269;51.738;21.652;2023-04-06T07:14:55;1.28;84.45
69162;DHT22;56269;51.738;21.652;2023-04-06T07:17:22;1.30;84.21
69162;DHT22;56269;51.738;21.652;2023-04-06T07:19:48;1.27;84.65
69162;DHT22;56269;51.738;21.652;2023-04-06T07:22:15;1.35;85.44
69162;DHT22;56269;51.738;21.652;2023-04-06T07:24:41;1.25;85.24
69162;DHT22;56269;51.738;21.652;2023-04-06T07:27:07;1.15;84.98
69162;DHT22;56269;51.738;21.652;2023-04-06T07:29:34;1.08;85.17
69162;DHT22;56269;51.738;21.652;2023-04-06T07:32:01;1.11;85.56
69162;DHT22;56269;51.738;21.652;2023-04-06T07:34:27;1.07;85.64
69162;DHT22;56269;51.738;21.652;2023-04-06T07:36:54;1.07;86.31
69162;DHT22;56269;51.738;21.652;2023-04-06T07:39:20;1.00;86.58
69162;DHT22;56269;51.738;21.652;2023-04-06T07:41:47;0.91;87.98
69162;DHT22;56269;51.738;21.652;2023-04-06T07:44:13;0.85;88.25
69162;DHT22;56269;51.738;21.652;2023-04-06T07:46:45;0.81;89.15
69162;DHT22;56269;51.738;21.652;2023-04-06T07:49:14;0.76;89.50
69162;DHT22;56269;51.738;21.652;2023-04-06T07:51:41;0.69;90.20
69162;DHT22;56269;51.738;21.652;2023-04-06T07:54:08;0.76;89.79
69162;DHT22;56269;51.738;21.652;2023-04-06T07:56:34;0.83;89.37
69162;DHT22;56269;51.738;21.652;2023-04-06T07:59:01;0.88;89.99
69162;DHT22;56269;51.738;21.652;2023-04-06T08:01:28;0.94;89.72
69162;DHT22;56269;51.738;21.652;2023-04-06T08:03:56;0.94;88.86
69162;DHT22;56269;51.738;21.652;2023-04-06T08:06:23;0.90;88.91
69162;DHT22;56269;51.738;21.652;2023-04-06T08:08:49;0.85;88.87
69162;DHT22;56269;51.738;21.652;2023-04-06T08:11:16;0.85;88.88
69162;DHT22;56269;51.738;21.652;2023-04-06T08:13:42;0.85;89.15
69162;DHT22;56269;51.738;21.652;2023-04-06T08:16:09;0.88;89.85
69162;DHT22;56269;51.738;21.652;2023-04-06T08:18:35;0.87;89.79
69162;DHT22;56269;51.738;21.652;2023-04-06T08:21:02;0.94;91.02
69162;DHT22;56269;51.738;21.652;2023-04-06T08:23:30;0.91;90.69
69162;DHT22;56269;51.738;21.652;2023-04-06T08:25:57;0.76;91.47
69162;DHT22;56269;51.738;21.652;2023-04-06T08:28:23;0.70;91.27
69162;DHT22;56269;51.738;21.652;2023-04-06T08:30:50;0.83;91.78
69162;DHT22;56269;51.738;21.652;2023-04-06T08:33:16;0.79;91.36
69162;DHT22;56269;51.738;21.652;2023-04-06T08:35:42;0.93;91.70
69162;DHT22;56269;51.738;21.652;2023-04-06T08:38:08;0.90;91.22
69162;DHT22;56269;51.738;21.652;2023-04-06T08:40:37;0.85;91.01
69162;DHT22;56269;51.738;21.652;2023-04-06T08:43:03;1.08;91.76
69162;DHT22;56269;51.738;21.652;2023-04-06T08:45:43;0.93;91.41
69162;DHT22;56269;51.738;21.652;2023-04-06T09:33:28;0.87;93.99
69162;DHT22;56269;51.738;21.652;2023-04-06T09:35:54;0.77;94.29
69162;DHT22;56269;51.738;21.652;2023-04-06T09:38:21;0.80;95.07
69162;DHT22;56269;51.738;21.652;2023-04-06T09:40:51;0.67;94.85
69162;DHT22;56269;51.738;21.652;2023-04-06T09:43:28;0.67;95.14
69162;DHT22;56269;51.738;21.652;2023-04-06T09:45:55;0.69;95.66
69162;DHT22;56269;51.738;21.652;2023-04-06T09:48:24;0.69;95.33
69162;DHT22;56269;51.738;21.652;2023-04-06T09:50:57;0.66;95.03
69162;DHT22;56269;51.738;21.652;2023-04-06T09:53:27;0.76;95.47
69162;DHT22;56269;51.738;21.652;2023-04-06T09:55:57;0.80;95.41
69162;DHT22;56269;51.738;21.652;2023-04-06T09:58:34;0.83;95.28
69162;DHT22;56269;51.738;21.652;2023-04-06T10:01:15;0.80;95.16
69162;DHT22;56269;51.738;21.652;2023-04-06T10:03:55;0.88;95.11
69162;DHT22;56269;51.738;21.652;2023-04-06T10:06:31;0.90;94.96
69162;DHT22;56269;51.738;21.652;2023-04-06T10:09:12;0.87;94.45
69162;DHT22;56269;51.738;21.652;2023-04-06T10:11:41;0.88;94.54
69162;DHT22;56269;51.738;21.652;2023-04-06T10:14:11;0.98;94.29
69162;DHT22;56269;51.738;21.652;2023-04-06T10:16:37;1.00;94.43
69162;DHT22;56269;51.738;21.652;2023-04-06T10:19:14;1.15;93.95
69162;DHT22;56269;51.738;21.652;2023-04-06T10:21:45;1.13;94.02
69162;DHT22;56269;51.738;21.652;2023-04-06T10:24:18;1.15;93.61
69162;DHT22;56269;51.738;21.652;2023-04-06T10:27:03;1.11;93.72
69162;DHT22;56269;51.738;21.652;2023-04-06T10:29:50;1.13;93.69
69162;DHT22;56269;51.738;21.652;2023-04-06T10:32:18;1.14;93.53
69162;DHT22;56269;51.738;21.652;2023-04-06T10:34:48;1.15;93.88
69162;DHT22;56269;51.738;21.652;2023-04-06T10:37:15;1.23;93.59
69162;DHT22;56269;51.738;21.652;2023-04-06T10:39:54;1.27;93.44
69162;DHT22;56269;51.738;21.652;2023-04-06T10:42:41;1.21;93.38
69162;DHT22;56269;51.738;21.652;2023-04-06T10:45:20;1.27;93.97
69162;DHT22;56269;51.738;21.652;2023-04-06T11:08:33;1.48;94.05
69162;DHT22;56269;51.738;21.652;2023-04-06T11:11:08;1.38;94.07
69162;DHT22;56269;51.738;21.652;2023-04-06T11:13:44;1.45;94.29
69162;DHT22;56269;51.738;21.652;2023-04-06T11:16:22;1.34;94.21
69162;DHT22;56269;51.738;21.652;2023-04-06T11:19:15;1.31;95.03
69162;DHT22;56269;51.738;21.652;2023-04-06T11:21:49;1.28;94.94
69162;DHT22;56269;51.738;21.652;2023-04-06T11:24:21;1.30;95.53
69162;DHT22;56269;51.738;21.652;2023-04-06T11:26:50;1.25;96.30
69162;DHT22;56269;51.738;21.652;2023-04-06T11:29:20;1.18;96.07
69162;DHT22;56269;51.738;21.652;2023-04-06T11:32:07;1.14;96.56
69162;DHT22;56269;51.738;21.652;2023-04-06T11:34:39;1.11;97.21
69162;DHT22;56269;51.738;21.652;2023-04-06T11:37:11;1.15;97.29
69162;DHT22;56269;51.738;21.652;2023-04-06T11:39:43;1.15;97.68
69162;DHT22;56269;51.738;21.652;2023-04-06T11:42:21;1.15;97.78
69162;DHT22;56269;51.738;21.652;2023-04-06T12:26:09;1.27;99.11
69162;DHT22;56269;51.738;21.652;2023-04-06T12:28:35;1.31;98.54
69162;DHT22;56269;51.738;21.652;2023-04-06T12:31:01;1.27;98.37
69162;DHT22;56269;51.738;21.652;2023-04-06T12:33:27;1.25;99.28
69162;DHT22;56269;51.738;21.652;2023-04-06T12:35:54;1.36;99.44
69162;DHT22;56269;51.738;21.652;2023-04-06T12:38:20;1.34;99.47
69162;DHT22;56269;51.738;21.652;2023-04-06T12:40:48;1.34;99.38
69162;DHT22;56269;51.738;21.652;2023-04-06T12:43:15;1.34;99.32
69162;DHT22;56269;51.738;21.652;2023-04-06T12:45:41;1.44;99.52
69162;DHT22;56269;51.738;21.652;2023-04-06T12:48:11;1.51;99.70
69162;DHT22;56269;51.738;21.652;2023-04-06T12:50:41;1.52;99.86
69162;DHT22;56269;51.738;21.652;2023-04-06T12:53:10;1.42;99.70
69162;DHT22;56269;51.738;21.652;2023-04-06T13:59:38;1.56;99.99
69162;DHT22;56269;51.738;21.652;2023-04-06T14:02:29;1.69;99.99
69162;DHT22;56269;51.738;21.652;2023-04-06T14:05:20;1.60;99.88
69162;DHT22;56269;51.738;21.652;2023-04-06T14:08:11;1.62;99.99
69162;DHT22;56269;51.738;21.652;2023-04-06T14:10:38;1.62;99.99
69162;DHT22;56269;51.738;21.652;2023-04-06T14:13:08;1.67;99.99
69162;DHT22;56269;51.738;21.652;2023-04-06T14:15:34;1.69;99.99
69162;DHT22;56269;51.738;21.652;2023-04-06T14:18:02;1.70;99.99
69162;DHT22;56269;51.738;21.652;2023-04-06T15:24:06;1.82;99.99
69162;DHT22;56269;51.738;21.652;2023-04-06T15:26:35;1.85;99.99
69162;DHT22;56269;51.738;21.652;2023-04-06T15:29:04;1.85;99.99
69162;DHT22;56269;51.738;21.652;2023-04-06T15:31:31;1.86;99.99
69162;DHT22;56269;51.738;21.652;2023-04-06T15:33:59;1.86;99.99
69162;DHT22;56269;51.738;21.652;2023-04-06T15:36:28;1.85;99.99
69162;DHT22;56269;51.738;21.652;2023-04-06T15:38:56;1.86;99.99
69162;DHT22;56269;51.738;21.652;2023-04-06T15:41:25;1.85;99.99
69162;DHT22;56269;51.738;21.652;2023-04-06T15:43:54;1.82;99.99
69162;DHT22;56269;51.738;21.652;2023-04-06T15:46:22;1.85;99.99
69162;DHT22;56269;51.738;21.652;2023-04-06T15:48:49;1.85;99.99
69162;DHT22;56269;51.738;21.652;2023-04-06T15:51:19;1.87;99.99
69162;DHT22;56269;51.738;21.652;2023-04-06T15:53:46;1.92;99.99
69162;DHT22;56269;51.738;21.652;2023-04-06T15:56:22;1.89;99.99
69162;DHT22;56269;51.738;21.652;2023-04-06T15:58:51;1.87;99.99
69162;DHT22;56269;51.738;21.652;2023-04-06T16:01:18;1.92;99.99
69162;DHT22;56269;51.738;21.652;2023-04-06T16:03:45;1.92;99.99
69162;DHT22;56269;51.738;21.652;2023-04-06T16:06:14;1.92;99.99
69162;DHT22;56269;51.738;21.652;2023-04-06T16:08:41;1.92;99.99
69162;DHT22;56269;51.738;21.652;2023-04-06T16:11:08;1.93;99.99
69162;DHT22;56269;51.738;21.652;2023-04-06T16:13:36;1.93;99.99
69162;DHT22;56269;51.738;21.652;2023-04-06T16:16:03;1.95;99.99
69162;DHT22;56269;51.738;21.652;2023-04-06T16:18:32;1.96;99.99
69162;DHT22;56269;51.738;21.652;2023-04-06T16:20:59;1.92;99.99
69162;DHT22;56269;51.738;21.652;2023-04-06T16:23:26;1.95;99.99
69162;DHT22;56269;51.738;21.652;2023-04-06T16:25:53;1.95;99.99
69162;DHT22;56269;51.738;21.652;2023-04-06T16:28:24;1.96;99.99
69162;DHT22;56269;51.738;21.652;2023-04-06T16:30:55;1.99;99.99
69162;DHT22;56269;51.738;21.652;2023-04-06T16:33:38;2.00;99.99
69162;DHT22;56269;51.738;21.652;2023-04-06T17:50:56;2.28;99.99
69162;DHT22;56269;51.738;21.652;2023-04-06T17:53:24;2.28;99.99
69162;DHT22;56269;51.738;21.652;2023-04-06T17:55:50;2.31;99.99
69162;DHT22;56269;51.738;21.652;2023-04-06T17:58:17;2.34;99.99
69162;DHT22;56269;51.738;21.652;2023-04-06T18:00:43;2.33;99.99
69162;DHT22;56269;51.738;21.652;2023-04-06T18:03:09;2.36;99.99
69162;DHT22;56269;51.738;21.652;2023-04-06T18:05:36;2.38;99.99
69162;DHT22;56269;51.738;21.652;2023-04-06T18:08:23;2.41;99.99
69162;DHT22;56269;51.738;21.652;2023-04-06T18:10:57;2.40;99.99
69162;DHT22;56269;51.738;21.652;2023-04-06T18:13:27;2.41;99.99
69162;DHT22;56269;51.738;21.652;2023-04-06T18:16:13;2.49;99.99
69162;DHT22;56269;51.738;21.652;2023-04-06T18:18:39;2.49;99.99
69162;DHT22;56269;51.738;21.652;2023-04-06T18:24:54;2.47;99.99
69162;DHT22;56269;51.738;21.652;2023-04-06T18:27:31;2.49;99.99
69162;DHT22;56269;51.738;21.652;2023-04-06T18:30:03;2.48;99.99
69162;DHT22;56269;51.738;21.652;2023-04-06T18:32:30;2.49;99.99
69162;DHT22;56269;51.738;21.652;2023-04-06T18:34:57;2.52;99.99
69162;DHT22;56269;51.738;21.652;2023-04-06T18:37:24;2.54;99.99
69162;DHT22;56269;51.738;21.652;2023-04-06T18:40:30;2.55;99.99
69162;DHT22;56269;51.738;21.652;2023-04-06T18:43:07;2.54;99.99
69162;DHT22;56269;51.738;21.652;2023-04-06T18:49:09;2.58;99.99
69162;DHT22;56269;51.738;21.652;2023-04-06T18:52:07;2.59;99.99
69162;DHT22;56269;51.738;21.652;2023-04-06T18:54:42;2.57;99.99
69162;DHT22;56269;51.738;21.652;2023-04-06T18:57:48;2.64;99.99
69162;DHT22;56269;51.738;21.652;2023-04-06T19:04:29;2.61;99.99
69162;DHT22;56269;51.738;21.652;2023-04-06T19:06:57;2.62;99.99
69162;DHT22;56269;51.738;21.652;2023-04-06T19:16:59;2.68;99.99
69162;DHT22;56269;51.738;21.652;2023-04-06T19:27:53;2.75;99.99
69162;DHT22;56269;51.738;21.652;2023-04-06T19:34:25;2.75;99.99
69162;DHT22;56269;51.738;21.652;2023-04-06T19:44:38;2.82;99.99
69162;DHT22;56269;51.738;21.652;2023-04-06T19:47:04;2.82;99.99
69162;DHT22;56269;51.738;21.652;2023-04-06T19:49:31;2.88;99.99
69162;DHT22;56269;51.738;21.652;2023-04-06T19:51:57;2.87;99.99
69162;DHT22;56269;51.738;21.652;2023-04-06T19:54:24;2.85;99.99
69162;DHT22;56269;51.738;21.652;2023-04-06T19:56:50;2.85;99.99
69162;DHT22;56269;51.738;21.652;2023-04-06T19:59:16;2.87;99.99
69162;DHT22;56269;51.738;21.652;2023-04-06T20:01:43;2.87;99.99
69162;DHT22;56269;51.738;21.652;2023-04-06T20:04:10;2.87;99.99
69162;DHT22;56269;51.738;21.652;2023-04-06T20:06:37;2.87;99.99
69162;DHT22;56269;51.738;21.652;2023-04-06T20:09:06;2.91;99.99
69162;DHT22;56269;51.738;21.652;2023-04-06T20:11:40;2.88;99.99
69162;DHT22;56269;51.738;21.652;2023-04-06T20:14:07;2.91;99.99
69162;DHT22;56269;51.738;21.652;2023-04-06T20:16:33;2.91;99.99
69162;DHT22;56269;51.738;21.652;2023-04-06T20:19:00;2.92;99.99
69162;DHT22;56269;51.738;21.652;2023-04-06T20:21:26;2.92;99.99
69162;DHT22;56269;51.738;21.652;2023-04-06T20:23:53;2.96;99.99
69162;DHT22;56269;51.738;21.652;2023-04-06T20:26:19;2.96;99.99
69162;DHT22;56269;51.738;21.652;2023-04-06T20:28:46;3.00;99.99
69162;DHT22;56269;51.738;21.652;2023-04-06T20:31:13;3.00;99.99
69162;DHT22;56269;51.738;21.652;2023-04-06T20:33:39;3.00;99.99
69162;DHT22;56269;51.738;21.652;2023-04-06T20:36:08;3.02;99.99
69162;DHT22;56269;51.738;21.652;2023-04-06T20:38:38;3.00;99.99
69162;DHT22;56269;51.738;21.652;2023-04-06T20:41:06;3.03;99.99
69162;DHT22;56269;51.738;21.652;2023-04-06T20:43:35;3.08;99.99
69162;DHT22;56269;51.738;21.652;2023-04-06T20:46:03;3.06;99.99
69162;DHT22;56269;51.738;21.652;2023-04-06T20:48:35;3.08;99.99
69162;DHT22;56269;51.738;21.652;2023-04-06T20:51:04;3.10;99.99
69162;DHT22;56269;51.738;21.652;2023-04-06T20:53:35;3.09;99.99
69162;DHT22;56269;51.738;21.652;2023-04-06T20:56:04;3.13;99.99
69162;DHT22;56269;51.738;21.652;2023-04-06T20:58:32;3.13;99.99
69162;DHT22;56269;51.738;21.652;2023-04-06T21:00:59;3.13;99.99
69162;DHT22;56269;51.738;21.652;2023-04-06T21:03:28;3.13;99.99
69162;DHT22;56269;51.738;21.652;2023-04-06T21:06:00;3.13;99.99
69162;DHT22;56269;51.738;21.652;2023-04-06T21:08:29;3.16;99.99
69162;DHT22;56269;51.738;21.652;2023-04-06T21:10:56;3.16;99.99
69162;DHT22;56269;51.738;21.652;2023-04-06T21:13:25;3.18;99.99
69162;DHT22;56269;51.738;21.652;2023-04-06T21:15:54;3.18;99.99
69162;DHT22;56269;51.738;21.652;2023-04-06T21:18:23;3.19;99.99
69162;DHT22;56269;51.738;21.652;2023-04-06T21:20:57;3.20;99.99
69162;DHT22;56269;51.738;21.652;2023-04-06T21:23:24;3.24;99.99
69162;DHT22;56269;51.738;21.652;2023-04-06T21:25:51;3.22;99.99